createdAt,value
2024-05-09T00:01:17.258Z,101538.09
2024-05-09T00:03:50.629Z,101548.78
2024-05-09T00:06:23.069Z,101548.63
2024-05-09T00:08:57.162Z,101538.59
2024-05-09T00:11:33.144Z,101540.09
2024-05-09T00:14:03.780Z,101551.97
2024-05-09T00:16:34.781Z,101559.47
2024-05-09T00:19:05.062Z,101555.69
2024-05-09T00:21:37.491Z,101554.44
2024-05-09T00:24:12.531Z,101551.25
2024-05-09T00:26:42.804Z,101550.53
2024-05-09T00:29:17.639Z,101544.50
2024-05-09T00:31:49.760Z,101541.69
2024-05-09T00:34:22.353Z,101541.88
2024-05-09T00:36:55.077Z,101540.19
2024-05-09T00:39:28.234Z,101543.06
2024-05-09T00:41:59.819Z,101541.47
2024-05-09T00:44:30.261Z,101543.34
2024-05-09T00:47:09.477Z,101542.63
2024-05-09T00:49:40.633Z,101534.91
2024-05-09T00:52:14.688Z,101537.56
2024-05-09T00:54:49.087Z,101535.88
2024-05-09T00:57:24.484Z,101537.75
2024-05-09T00:59:58.565Z,101537.13
2024-05-09T01:02:31.063Z,101530.25
2024-05-09T01:05:01.706Z,101528.56
2024-05-09T01:07:32.842Z,101524.22
2024-05-09T01:10:09.050Z,101518.84
2024-05-09T01:12:41.387Z,101524.03
2024-05-09T01:15:11.687Z,101518.75
2024-05-09T01:17:42.181Z,101521.41
2024-05-09T01:20:20.004Z,101525.41
2024-05-09T01:22:58.744Z,101530.59
2024-05-09T01:25:35.637Z,101523.47
2024-05-09T01:28:06.327Z,101524.13
2024-05-09T01:30:37.727Z,101516.41
2024-05-09T01:33:13.021Z,101519.25
2024-05-09T01:35:45.443Z,101519.47
2024-05-09T01:38:20.301Z,101515.25
2024-05-09T01:40:53.422Z,101519.69
2024-05-09T01:43:25.699Z,101513.66
2024-05-09T01:45:57.548Z,101515.66
2024-05-09T01:48:29.039Z,101518.63
2024-05-09T01:51:01.378Z,101515.38
2024-05-09T01:53:31.867Z,101519.06
2024-05-09T01:56:04.954Z,101513.28
2024-05-09T01:58:35.845Z,101518.00
2024-05-09T02:01:07.308Z,101527.94
2024-05-09T02:03:38.849Z,101524.84
2024-05-09T02:06:11.560Z,101518.19
2024-05-09T02:08:44.625Z,101511.47
2024-05-09T02:11:17.392Z,101513.66
2024-05-09T02:13:51.391Z,101516.50
2024-05-09T02:16:21.405Z,101518.59
2024-05-09T02:18:52.475Z,101519.56
2024-05-09T02:21:22.699Z,101526.63
2024-05-09T02:23:53.099Z,101521.66
2024-05-09T02:26:25.983Z,101528.09
2024-05-09T02:28:56.102Z,101533.38
2024-05-09T02:31:26.740Z,101526.88
2024-05-09T02:33:58.447Z,101533.94
2024-05-09T02:36:28.526Z,101530.56
2024-05-09T02:38:55.780Z,101535.09
2024-05-09T02:41:30.868Z,101537.09
2024-05-09T02:44:00.731Z,101538.16
2024-05-09T02:46:31.519Z,101534.78
2024-05-09T02:48:59.705Z,101526.94
2024-05-09T02:51:29.866Z,101534.13
2024-05-09T02:54:00.217Z,101535.91
2024-05-09T02:56:33.093Z,101538.63
2024-05-09T02:59:02.230Z,101530.19
2024-05-09T03:01:32.520Z,101526.03
2024-05-09T03:04:02.847Z,101526.34
2024-05-09T03:06:36.774Z,101525.63
2024-05-09T03:09:04.997Z,101527.69
2024-05-09T03:11:40.704Z,101527.13
2024-05-09T03:14:16.303Z,101525.44
2024-05-09T03:16:47.364Z,101521.97
2024-05-09T03:19:14.808Z,101531.75
2024-05-09T03:21:47.686Z,101533.75
2024-05-09T03:24:14.925Z,101533.97
2024-05-09T03:26:48.032Z,101539.31
2024-05-09T03:29:20.859Z,101538.66
2024-05-09T03:31:52.647Z,101539.63
2024-05-09T03:34:20.980Z,101537.19
2024-05-09T03:36:52.951Z,101539.91
2024-05-09T03:39:23.013Z,101534.00
2024-05-09T03:41:56.845Z,101541.25
2024-05-09T03:44:30.397Z,101533.41
2024-05-09T03:46:57.913Z,101539.66
2024-05-09T03:49:31.290Z,101538.91
2024-05-09T03:52:04.901Z,101537.22
2024-05-09T03:54:37.025Z,101538.34
2024-05-09T03:57:09.263Z,101533.28
2024-05-09T03:59:39.699Z,101533.56
2024-05-09T04:02:10.833Z,101529.22
2024-05-09T04:04:45.103Z,101539.88
2024-05-09T04:07:15.135Z,101538.19
2024-05-09T04:09:45.506Z,101535.44
2024-05-09T04:12:18.139Z,101536.28
2024-05-09T04:14:47.844Z,101545.97
2024-05-09T04:17:17.779Z,101545.03
2024-05-09T04:19:47.567Z,101554.75
2024-05-09T04:22:14.733Z,101557.38
2024-05-09T04:24:44.694Z,101559.06
2024-05-09T04:27:16.320Z,101556.44
2024-05-09T04:29:46.342Z,101558.03
2024-05-09T04:32:18.416Z,101556.22
2024-05-09T04:34:45.783Z,101557.00
2024-05-09T04:37:15.534Z,101556.88
2024-05-09T04:39:45.168Z,101561.22
2024-05-09T04:42:19.011Z,101556.63
2024-05-09T04:44:49.134Z,101558.31
2024-05-09T04:47:19.703Z,101565.28
2024-05-09T04:49:50.484Z,101563.59
2024-05-09T04:52:20.593Z,101566.97
2024-05-09T04:54:48.578Z,101558.84
2024-05-09T04:57:24.335Z,101563.00
2024-05-09T04:59:51.902Z,101559.41
2024-05-09T05:02:23.130Z,101563.56
2024-05-09T05:04:51.104Z,101566.19
2024-05-09T05:07:23.607Z,101561.56
2024-05-09T05:09:53.249Z,101570.13
2024-05-09T05:12:41.309Z,101564.75
2024-05-09T05:15:12.151Z,101567.94
2024-05-09T05:17:43.777Z,101559.72
2024-05-09T05:20:17.889Z,101566.41
2024-05-09T05:22:52.874Z,101565.19
2024-05-09T05:25:25.581Z,101563.19
2024-05-09T05:27:55.532Z,101568.16
2024-05-09T05:30:29.290Z,101566.91
2024-05-09T05:33:02.314Z,101569.38
2024-05-09T05:35:32.813Z,101572.53
2024-05-09T05:38:03.947Z,101577.53
2024-05-09T05:40:37.164Z,101580.63
2024-05-09T05:43:16.245Z,101581.25
2024-05-09T05:45:46.821Z,101581.72
2024-05-09T05:48:17.459Z,101582.19
2024-05-09T05:50:48.551Z,101585.47
2024-05-09T05:53:16.038Z,101589.28
2024-05-09T05:55:46.305Z,101594.25
2024-05-09T05:58:16.310Z,101594.72
2024-05-09T06:00:46.574Z,101589.19
2024-05-09T06:03:15.881Z,101587.84
2024-05-09T06:05:46.121Z,101580.47
2024-05-09T06:08:14.878Z,101581.66
2024-05-09T06:10:47.196Z,101581.97
2024-05-09T06:13:18.565Z,101570.84
2024-05-09T06:15:48.855Z,101585.25
2024-05-09T06:18:19.772Z,101590.94
2024-05-09T06:20:50.237Z,101586.00
2024-05-09T06:23:28.645Z,101579.31
2024-05-09T06:26:02.311Z,101583.97
2024-05-09T06:28:36.293Z,101585.00
2024-05-09T06:31:07.012Z,101592.41
2024-05-09T06:33:36.837Z,101581.50
2024-05-09T06:36:08.388Z,101588.34
2024-05-09T06:38:38.044Z,101581.91
2024-05-09T06:41:08.664Z,101587.59
2024-05-09T06:43:40.430Z,101582.81
2024-05-09T06:46:14.490Z,101585.94
2024-05-09T06:48:47.014Z,101586.28
2024-05-09T06:51:17.341Z,101593.72
2024-05-09T06:53:48.430Z,101585.25
2024-05-09T06:56:18.277Z,101577.56
2024-05-09T06:58:48.201Z,101587.63
2024-05-09T07:01:21.869Z,101585.59
2024-05-09T07:03:51.731Z,101589.34
2024-05-09T07:06:25.127Z,101579.97
2024-05-09T07:08:57.210Z,101578.69
2024-05-09T07:11:31.468Z,101586.75
2024-05-09T07:14:03.498Z,101587.28
2024-05-09T07:16:36.029Z,101580.44
2024-05-09T07:19:08.368Z,101584.34
2024-05-09T07:21:40.756Z,101580.97
2024-05-09T07:24:09.128Z,101574.22
2024-05-09T07:26:41.820Z,101578.09
2024-05-09T07:29:13.823Z,101571.38
2024-05-09T07:31:45.232Z,101579.44
2024-05-09T07:34:13.506Z,101581.47
2024-05-09T07:36:43.815Z,101572.81
2024-05-09T07:39:11.321Z,101570.16
2024-05-09T07:41:42.769Z,101563.66
2024-05-09T07:44:17.392Z,101570.88
2024-05-09T07:47:52.279Z,101566.03
2024-05-09T07:51:32.151Z,101573.47
2024-05-09T07:53:33.205Z,101561.19
2024-05-09T07:55:28.164Z,101560.91
2024-05-09T07:58:02.056Z,101566.13
2024-05-09T08:00:34.902Z,101573.34
2024-05-09T08:03:07.714Z,101568.22
2024-05-09T08:05:35.609Z,101562.31
2024-05-09T08:08:08.359Z,101557.91
2024-05-09T08:10:36.431Z,101547.34
2024-05-09T08:13:09.190Z,101546.69
2024-05-09T08:15:39.567Z,101553.19
2024-05-09T08:18:11.520Z,101552.41
2024-05-09T08:20:40.644Z,101548.84
2024-05-09T08:23:15.556Z,101550.97
2024-05-09T08:25:44.475Z,101551.03
2024-05-09T08:28:15.696Z,101550.13
2024-05-09T08:30:49.919Z,101547.66
2024-05-09T08:33:22.361Z,101546.88
2024-05-09T08:35:55.734Z,101542.44
2024-05-09T08:41:14.459Z,101539.69
2024-05-09T08:43:50.229Z,101532.59
2024-05-09T08:46:22.953Z,101531.88
2024-05-09T08:48:56.445Z,101529.66
2024-05-09T08:51:25.081Z,101524.34
2024-05-09T08:53:55.415Z,101526.19
2024-05-09T08:56:28.668Z,101521.84
2024-05-09T08:59:03.345Z,101518.25
2024-05-09T09:01:40.116Z,101515.59
2024-05-09T09:04:16.345Z,101517.28
2024-05-09T09:06:53.142Z,101525.97
2024-05-09T09:09:24.224Z,101523.56
2024-05-09T09:11:55.034Z,101509.34
2024-05-09T09:14:25.352Z,101517.50
2024-05-09T09:16:56.768Z,101512.28
2024-05-09T09:19:27.057Z,101506.09
2024-05-09T09:21:56.051Z,101507.19
2024-05-09T09:24:26.160Z,101508.19
2024-05-09T09:26:53.707Z,101504.09
2024-05-09T09:29:24.939Z,101506.88
2024-05-09T09:32:01.247Z,101499.53
2024-05-09T09:34:31.896Z,101503.56
2024-05-09T09:37:03.997Z,101494.66
2024-05-09T09:39:37.536Z,101493.75
2024-05-09T09:42:08.443Z,101495.09
2024-05-09T09:44:47.796Z,101490.66
2024-05-09T09:47:28.242Z,101488.78
2024-05-09T09:49:58.919Z,101486.44
2024-05-09T09:52:27.514Z,101491.78
2024-05-09T09:54:58.973Z,101481.09
2024-05-09T09:57:33.022Z,101482.72
2024-05-09T10:00:09.554Z,101481.88
2024-05-09T10:02:48.600Z,101480.81
2024-05-09T10:05:18.966Z,101488.22
2024-05-09T10:07:47.410Z,101471.97
2024-05-09T10:10:31.821Z,101480.63
2024-05-09T10:13:06.821Z,101475.78
2024-05-09T10:15:46.722Z,101474.53
2024-05-09T10:18:17.475Z,101487.63
2024-05-09T10:20:51.912Z,101476.09
2024-05-09T10:23:25.933Z,101469.06
2024-05-09T10:26:03.209Z,101473.72
2024-05-09T10:28:37.194Z,101470.44
2024-05-09T10:31:12.437Z,101476.59
2024-05-09T10:33:48.722Z,101477.66
2024-05-09T10:36:23.249Z,101471.94
2024-05-09T10:38:54.338Z,101469.69
2024-05-09T10:41:27.756Z,101460.97
2024-05-09T10:43:57.151Z,101461.53
2024-05-09T10:46:27.393Z,101469.63
2024-05-09T10:49:00.334Z,101460.66
2024-05-09T10:51:33.338Z,101464.56
2024-05-09T10:54:03.400Z,101455.88
2024-05-09T10:56:34.067Z,101449.06
2024-05-09T10:59:04.603Z,101433.03
2024-05-09T11:01:36.576Z,101431.50
2024-05-09T11:04:15.812Z,101441.75
2024-05-09T11:06:48.429Z,101435.31
2024-05-09T11:09:18.619Z,101428.38
2024-05-09T11:11:51.847Z,101421.81
2024-05-09T11:14:19.163Z,101425.66
2024-05-09T11:16:49.260Z,101423.66
2024-05-09T11:19:21.044Z,101423.00
2024-05-09T11:21:54.050Z,101422.53
2024-05-09T11:24:23.731Z,101418.19
2024-05-09T11:27:01.227Z,101413.03
2024-05-09T11:29:37.648Z,101402.63
2024-05-09T11:32:11.729Z,101405.63
2024-05-09T11:34:46.322Z,101403.44
2024-05-09T11:37:16.699Z,101404.78
2024-05-09T11:40:06.793Z,101400.44
2024-05-09T11:42:51.502Z,101399.69
2024-05-09T11:45:22.609Z,101394.38
2024-05-09T11:47:53.974Z,101397.38
2024-05-09T11:50:29.834Z,101389.50
2024-05-09T11:53:03.590Z,101379.88
2024-05-09T11:55:31.151Z,101384.59
2024-05-09T11:58:01.575Z,101379.38
2024-05-09T12:00:36.596Z,101364.78
2024-05-09T12:03:12.832Z,101368.13
2024-05-09T12:05:46.789Z,101362.22
2024-05-09T12:08:17.130Z,101362.13
2024-05-09T12:10:47.117Z,101369.91
2024-05-09T12:13:20.682Z,101366.53
2024-05-09T12:15:48.019Z,101364.22
2024-05-09T12:18:21.390Z,101357.69
2024-05-09T12:20:51.585Z,101358.38
2024-05-09T12:23:21.450Z,101357.84
2024-05-09T12:25:51.581Z,101348.97
2024-05-09T12:28:22.861Z,101352.06
2024-05-09T12:30:50.771Z,101346.22
2024-05-09T12:33:20.982Z,101348.81
2024-05-09T12:35:52.080Z,101345.88
2024-05-09T12:38:28.223Z,101336.09
2024-05-09T12:40:56.274Z,101339.81
2024-05-09T12:43:31.266Z,101335.34
2024-05-09T12:45:58.790Z,101335.69
2024-05-09T12:48:29.784Z,101329.91
2024-05-09T12:51:02.946Z,101327.88
2024-05-09T12:53:38.034Z,101332.25
2024-05-09T12:56:09.449Z,101338.75
2024-05-09T12:58:41.447Z,101328.88
2024-05-09T13:01:10.803Z,101329.78
2024-05-09T13:03:42.924Z,101318.38
2024-05-09T13:06:13.376Z,101316.91
2024-05-09T13:08:49.847Z,101317.53
2024-05-09T13:11:19.125Z,101308.50
2024-05-09T13:13:52.562Z,101308.19
2024-05-09T13:16:20.457Z,101302.84
2024-05-09T13:18:52.950Z,101299.28
2024-05-09T13:21:25.044Z,101300.28
2024-05-09T13:23:58.168Z,101298.13
2024-05-09T13:26:26.309Z,101296.53
2024-05-09T13:28:56.351Z,101290.53
2024-05-09T13:31:24.461Z,101286.41
2024-05-09T13:33:54.344Z,101289.00
2024-05-09T13:36:24.739Z,101282.63
2024-05-09T13:38:55.010Z,101276.53
2024-05-09T13:41:23.367Z,101272.22
2024-05-09T13:43:53.624Z,101269.16
2024-05-09T13:46:21.473Z,101266.47
2024-05-09T13:48:57.070Z,101263.44
2024-05-09T13:51:27.116Z,101255.94
2024-05-09T13:53:59.297Z,101264.16
2024-05-09T13:56:26.721Z,101264.91
2024-05-09T13:58:58.744Z,101255.81
2024-05-09T14:01:26.337Z,101257.53
2024-05-09T14:03:56.388Z,101249.63
2024-05-09T14:06:29.690Z,101248.53
2024-05-09T14:09:04.620Z,101247.03
2024-05-09T14:11:39.991Z,101239.19
2024-05-09T14:14:12.756Z,101231.25
2024-05-09T14:16:44.699Z,101232.13
2024-05-09T14:19:20.027Z,101224.69
2024-05-09T14:21:50.028Z,101228.91
2024-05-09T14:24:19.974Z,101228.28
2024-05-09T14:26:50.089Z,101221.41
2024-05-09T14:29:23.145Z,101224.09
2024-05-09T14:31:53.015Z,101218.72
2024-05-09T14:34:25.988Z,101223.09
2024-05-09T14:37:01.672Z,101220.53
2024-05-09T14:39:34.841Z,101207.97
2024-05-09T14:42:04.055Z,101207.81
2024-05-09T14:44:35.383Z,101205.97
2024-05-09T14:47:09.522Z,101202.13
2024-05-09T14:49:41.844Z,101201.78
2024-05-09T14:52:14.913Z,101193.00
2024-05-09T14:54:51.321Z,101199.94
2024-05-09T14:57:21.263Z,101192.38
2024-05-09T14:59:54.854Z,101197.72
2024-05-09T15:02:24.820Z,101191.81
2024-05-09T15:04:56.902Z,101185.88
2024-05-09T15:07:27.246Z,101184.09
2024-05-09T15:09:59.574Z,101184.88
2024-05-09T15:12:29.203Z,101179.00
2024-05-09T15:15:00.108Z,101175.78
2024-05-09T15:17:28.391Z,101172.16
2024-05-09T15:19:58.761Z,101169.88
2024-05-09T15:22:29.931Z,101171.91
2024-05-09T15:25:05.317Z,101159.53
2024-05-09T15:27:33.263Z,101153.63
2024-05-09T15:30:06.871Z,101146.88
2024-05-09T15:32:38.047Z,101149.06
2024-05-09T15:35:10.457Z,101146.66
2024-05-09T15:37:41.966Z,101154.78
2024-05-09T15:40:18.846Z,101145.34
2024-05-09T15:42:54.746Z,101140.75
2024-05-09T15:45:27.238Z,101136.06
2024-05-09T15:47:54.867Z,101136.09
2024-05-09T15:50:32.821Z,101129.72
2024-05-09T15:53:12.280Z,101128.25
2024-05-09T15:55:45.105Z,101126.56
2024-05-09T15:58:14.480Z,101127.00
2024-05-09T16:00:51.427Z,101117.41
2024-05-09T16:03:21.181Z,101110.06
2024-05-09T16:05:55.755Z,101105.03
2024-05-09T16:08:29.203Z,101103.00
2024-05-09T16:11:01.290Z,101107.16
2024-05-09T16:13:32.225Z,101095.66
2024-05-09T16:16:02.613Z,101094.81
2024-05-09T16:18:32.559Z,101106.53
2024-05-09T16:21:02.655Z,101091.66
2024-05-09T16:23:33.236Z,101097.97
2024-05-09T16:26:03.694Z,101094.91
2024-05-09T16:28:31.350Z,101103.22
2024-05-09T16:31:02.682Z,101092.22
2024-05-09T16:33:33.509Z,101090.63
2024-05-09T16:36:05.826Z,101097.00
2024-05-09T16:38:35.672Z,101092.31
2024-05-09T16:41:06.091Z,101087.34
2024-05-09T16:43:34.044Z,101084.34
2024-05-09T16:46:09.070Z,101088.09
2024-05-09T16:48:37.738Z,101073.13
2024-05-09T16:51:10.568Z,101076.16
2024-05-09T16:53:42.973Z,101079.97
2024-05-09T16:56:18.257Z,101085.19
2024-05-09T16:58:45.599Z,101081.22
2024-05-09T17:01:24.984Z,101078.84
2024-05-09T17:03:55.930Z,101082.59
2024-05-09T17:06:27.331Z,101092.91
2024-05-09T17:09:08.124Z,101086.88
2024-05-09T17:11:44.117Z,101085.47
2024-05-09T17:14:16.870Z,101078.53
2024-05-09T17:16:47.795Z,101093.91
2024-05-09T17:19:24.220Z,101087.44
2024-05-09T17:21:54.057Z,101094.66
2024-05-09T17:24:30.552Z,101077.53
2024-05-09T17:26:59.640Z,101084.22
2024-05-09T17:29:32.144Z,101090.03
2024-05-09T17:32:00.734Z,101083.38
2024-05-09T17:34:31.163Z,101090.69
2024-05-09T17:37:01.638Z,101083.81
2024-05-09T17:39:34.737Z,101093.81
2024-05-09T17:42:04.699Z,101091.16
2024-05-09T17:44:36.857Z,101091.16
2024-05-09T17:47:09.168Z,101091.72
2024-05-09T17:49:40.504Z,101087.69
2024-05-09T17:52:11.603Z,101090.22
2024-05-09T17:54:47.039Z,101090.47
2024-05-09T17:57:14.963Z,101109.06
2024-05-09T17:59:45.758Z,101103.63
2024-05-09T18:02:16.585Z,101099.63
2024-05-09T18:04:48.118Z,101098.69
2024-05-09T18:07:17.997Z,101102.06
2024-05-09T18:09:51.796Z,101111.66
2024-05-09T18:12:21.718Z,101106.09
2024-05-09T18:14:52.096Z,101106.50
2024-05-09T18:17:22.341Z,101111.88
2024-05-09T18:19:54.093Z,101117.00
2024-05-09T18:22:24.773Z,101110.91
2024-05-09T18:25:02.198Z,101105.03
2024-05-09T18:27:31.359Z,101108.41
2024-05-09T18:30:11.679Z,101111.53
2024-05-09T18:32:42.389Z,101114.28
2024-05-09T18:35:14.241Z,101120.84
2024-05-09T18:37:43.335Z,101118.38
2024-05-09T18:40:24.816Z,101115.31
2024-05-09T18:43:02.499Z,101117.81
2024-05-09T18:45:34.024Z,101115.41
2024-05-09T18:48:06.858Z,101119.34
2024-05-09T18:50:42.474Z,101122.97
2024-05-09T18:53:14.577Z,101130.41
2024-05-09T18:55:48.719Z,101132.13
2024-05-09T18:58:18.725Z,101136.53
2024-05-09T19:00:51.238Z,101135.84
2024-05-09T19:03:22.730Z,101136.53
2024-05-09T19:05:55.262Z,101136.84
2024-05-09T19:08:26.243Z,101135.34
2024-05-09T19:11:03.972Z,101144.94
2024-05-09T19:13:32.007Z,101141.91
2024-05-09T19:16:03.213Z,101145.91
2024-05-09T19:18:31.013Z,101151.13
2024-05-09T19:21:01.373Z,101146.94
2024-05-09T19:23:29.165Z,101153.41
2024-05-09T19:25:59.275Z,101153.41
2024-05-09T19:28:29.042Z,101151.72
2024-05-09T19:30:59.324Z,101157.34
2024-05-09T19:33:26.723Z,101156.47
2024-05-09T19:35:58.885Z,101160.81
2024-05-09T19:38:26.370Z,101163.78
2024-05-09T19:40:56.417Z,101165.59
2024-05-09T19:43:30.034Z,101164.03
2024-05-09T19:46:01.412Z,101166.97
2024-05-09T19:48:30.728Z,101168.91
2024-05-09T19:51:03.483Z,101169.88
2024-05-09T19:53:31.748Z,101169.47
2024-05-09T19:56:01.751Z,101173.25
2024-05-09T19:58:31.695Z,101169.00
2024-05-09T20:01:03.992Z,101173.44
2024-05-09T20:03:36.961Z,101170.97
2024-05-09T20:06:07.987Z,101174.16
2024-05-09T20:08:35.697Z,101173.56
2024-05-09T20:11:05.827Z,101176.59
2024-05-09T20:13:39.685Z,101174.13
2024-05-09T20:16:12.293Z,101183.19
2024-05-09T20:18:41.233Z,101179.44
2024-05-09T20:21:13.309Z,101184.81
2024-05-09T20:23:42.562Z,101178.56
2024-05-09T20:26:15.039Z,101179.25
2024-05-09T20:28:46.311Z,101173.25
2024-05-09T20:31:22.134Z,101178.31
2024-05-09T20:33:52.297Z,101186.72
2024-05-09T20:36:23.232Z,101191.81
2024-05-09T20:38:50.894Z,101185.66
2024-05-09T20:41:23.956Z,101185.41
2024-05-09T20:43:55.138Z,101187.13
2024-05-09T20:46:25.248Z,101185.88
2024-05-09T20:48:54.155Z,101191.50
2024-05-09T20:51:30.246Z,101194.72
2024-05-09T20:54:00.502Z,101195.84
2024-05-09T20:56:33.748Z,101190.25
2024-05-09T20:59:05.796Z,101190.97
2024-05-09T21:01:35.804Z,101199.38
2024-05-09T21:04:03.575Z,101191.09
2024-05-09T21:06:33.535Z,101197.41
2024-05-09T21:09:00.845Z,101199.13
2024-05-09T21:11:30.891Z,101200.06
2024-05-09T21:13:58.205Z,101205.78
2024-05-09T21:16:33.877Z,101196.69
2024-05-09T21:19:01.693Z,101203.53
2024-05-09T21:21:31.893Z,101210.13
2024-05-09T21:23:59.057Z,101207.88
2024-05-09T21:26:32.334Z,101204.22
2024-05-09T21:28:59.925Z,101200.00
2024-05-09T21:31:32.327Z,101204.50
2024-05-09T21:34:00.058Z,101204.06
2024-05-09T21:36:32.293Z,101199.16
2024-05-09T21:39:00.502Z,101203.47
2024-05-09T21:41:30.307Z,101202.22
2024-05-09T21:44:00.924Z,101203.84
2024-05-09T21:46:34.982Z,101194.63
2024-05-09T21:49:04.010Z,101197.53
2024-05-09T21:51:35.176Z,101192.63
2024-05-09T21:54:05.920Z,101196.66
2024-05-09T21:56:37.024Z,101192.00
2024-05-09T21:59:04.240Z,101182.75
2024-05-09T22:01:37.477Z,101197.53
2024-05-09T22:04:05.180Z,101193.59
2024-05-09T22:06:35.392Z,101183.19
2024-05-09T22:09:06.820Z,101197.13
2024-05-09T22:11:36.910Z,101195.44
2024-05-09T22:14:08.736Z,101189.81
2024-05-09T22:16:44.726Z,101195.50
2024-05-09T22:19:12.820Z,101194.78
2024-05-09T22:21:42.990Z,101191.69
2024-05-09T22:24:12.823Z,101193.50
2024-05-09T22:26:42.878Z,101196.16
2024-05-09T22:29:12.800Z,101196.28
2024-05-09T22:31:46.005Z,101191.13
2024-05-09T22:34:15.940Z,101198.94
2024-05-09T22:36:49.792Z,101196.69
2024-05-09T22:39:17.748Z,101205.75
2024-05-09T22:41:52.403Z,101204.44
2024-05-09T22:44:19.742Z,101205.66
2024-05-09T22:46:52.902Z,101207.88
2024-05-09T22:49:20.619Z,101211.88
2024-05-09T22:51:50.526Z,101208.63
2024-05-09T22:54:18.034Z,101210.97
2024-05-09T22:56:50.773Z,101205.94
2024-05-09T22:59:18.238Z,101210.75
2024-05-09T23:01:48.628Z,101209.19
2024-05-09T23:04:19.306Z,101209.19
2024-05-09T23:06:49.470Z,101201.34
2024-05-09T23:09:17.083Z,101198.00
2024-05-09T23:11:47.755Z,101204.41
2024-05-09T23:14:15.903Z,101202.59
2024-05-09T23:16:46.145Z,101205.44
2024-05-09T23:19:13.876Z,101197.88
2024-05-09T23:21:46.462Z,101193.66
2024-05-09T23:24:20.086Z,101193.81
2024-05-09T23:26:50.929Z,101192.25
2024-05-09T23:29:19.312Z,101191.41
2024-05-09T23:31:51.105Z,101198.38
2024-05-09T23:34:21.645Z,101187.94
2024-05-09T23:36:55.047Z,101195.72
2024-05-09T23:39:23.742Z,101190.31
2024-05-09T23:41:54.270Z,101194.66
2024-05-09T23:44:23.836Z,101196.47
2024-05-09T23:46:53.955Z,101194.53
2024-05-09T23:49:22.500Z,101189.34
2024-05-09T23:51:57.762Z,101190.31
2024-05-09T23:54:25.670Z,101187.78
2024-05-09T23:56:59.651Z,101189.34
2024-05-09T23:59:29.676Z,101191.03
